createdAt,value
2018-05-01T00:00:04.289Z,67.63
2018-05-01T00:01:04.216Z,68.01
2018-05-01T00:02:04.138Z,68.11
2018-05-01T00:03:04.063Z,67.82
2018-05-01T00:04:03.988Z,68.21
2018-05-01T00:05:03.909Z,67.73
2018-05-01T00:06:03.836Z,67.73
2018-05-01T00:07:03.759Z,68.01
2018-05-01T00:08:03.684Z,68.30
2018-05-01T00:09:03.608Z,68.21
2018-05-01T00:10:03.530Z,68.11
2018-05-01T00:11:03.458Z,69.25
2018-05-01T00:12:03.379Z,68.68
2018-05-01T00:13:03.303Z,68.77
2018-05-01T00:14:03.233Z,68.21
2018-05-01T00:15:03.152Z,68.21
2018-05-01T00:16:03.075Z,67.73
2018-05-01T00:17:03.004Z,68.11
2018-05-01T00:18:02.922Z,68.30
2018-05-01T00:19:02.848Z,68.21
2018-05-01T00:20:02.771Z,68.01
2018-05-01T00:21:02.694Z,68.59
2018-05-01T00:22:02.627Z,68.21
2018-05-01T00:23:02.544Z,68.40
2018-05-01T00:24:02.467Z,68.77
2018-05-01T00:25:02.400Z,68.68
2018-05-01T00:26:02.309Z,68.77
2018-05-01T00:27:02.258Z,68.68
2018-05-01T00:28:02.166Z,68.30
2018-05-01T00:29:02.089Z,68.68
2018-05-01T00:30:02.017Z,68.87
2018-05-01T00:31:01.937Z,68.87
2018-05-01T00:32:01.864Z,68.96
2018-05-01T00:33:01.797Z,69.06
2018-05-01T00:34:01.710Z,69.06
2018-05-01T00:35:01.636Z,68.68
2018-05-01T00:36:01.556Z,68.40
2018-05-01T00:37:01.480Z,68.77
2018-05-01T00:38:01.406Z,68.87
2018-05-01T00:39:01.329Z,68.40
2018-05-01T00:40:01.252Z,68.40
2018-05-01T00:41:01.175Z,68.96
2018-05-01T00:42:01.102Z,68.68
2018-05-01T00:43:01.026Z,68.87
2018-05-01T00:44:00.947Z,68.59
2018-05-01T00:45:00.874Z,68.96
2018-05-01T00:46:00.792Z,69.82
2018-05-01T00:47:00.725Z,68.59
2018-05-01T00:48:00.643Z,68.59
2018-05-01T00:49:00.566Z,68.59
2018-05-01T00:50:00.499Z,68.40
2018-05-01T00:51:00.415Z,69.15
2018-05-01T00:52:00.340Z,68.77
2018-05-01T00:53:00.265Z,69.25
2018-05-01T00:54:00.191Z,69.06
2018-05-01T00:55:00.114Z,68.68
2018-05-01T00:56:00.042Z,68.59
2018-05-01T00:56:59.961Z,68.96
2018-05-01T00:57:59.889Z,68.40
2018-05-01T00:58:59.809Z,68.40
2018-05-01T00:59:59.736Z,68.40
2018-05-01T01:00:59.655Z,68.40
2018-05-01T01:01:59.582Z,69.06
2018-05-01T01:02:59.505Z,69.44
2018-05-01T01:03:59.426Z,69.82
2018-05-01T01:04:59.352Z,69.25
2018-05-01T01:05:59.273Z,69.35
2018-05-01T01:06:59.203Z,69.15
2018-05-01T01:07:59.122Z,69.06
2018-05-01T01:08:59.048Z,69.44
2018-05-01T01:09:58.978Z,69.25
2018-05-01T01:10:58.895Z,68.96
2018-05-01T01:11:58.819Z,69.15
2018-05-01T01:12:58.746Z,69.54
2018-05-01T01:13:58.670Z,69.44
2018-05-01T01:14:58.591Z,69.15
2018-05-01T01:15:58.517Z,69.15
2018-05-01T01:16:58.439Z,69.06
2018-05-01T01:17:58.372Z,69.15
2018-05-01T01:18:58.287Z,69.06
2018-05-01T01:19:58.245Z,69.63
2018-05-01T01:20:58.134Z,69.15
2018-05-01T01:21:58.062Z,69.63
2018-05-01T01:22:57.992Z,69.15
2018-05-01T01:23:57.907Z,69.79
2018-05-01T01:24:57.831Z,69.15
2018-05-01T01:25:57.759Z,69.21
2018-05-01T01:26:57.678Z,69.63
2018-05-01T01:27:57.601Z,70.07
2018-05-01T01:28:57.531Z,69.60
2018-05-01T01:29:57.451Z,69.73
2018-05-01T01:30:57.375Z,70.01
2018-05-01T01:31:57.298Z,70.20
2018-05-01T01:32:57.223Z,70.30
2018-05-01T01:33:57.147Z,69.73
2018-05-01T01:34:57.976Z,70.58
2018-05-01T01:35:56.992Z,70.07
2018-05-01T01:36:56.916Z,69.69
2018-05-01T01:37:57.476Z,70.17
2018-05-01T01:38:56.765Z,69.98
2018-05-01T01:39:56.689Z,69.98
2018-05-01T01:40:56.616Z,70.45
2018-05-01T01:41:56.539Z,70.26
2018-05-01T01:42:56.462Z,70.45
2018-05-01T01:43:56.388Z,70.54
2018-05-01T01:44:56.307Z,70.45
2018-05-01T01:45:56.232Z,70.54
2018-05-01T01:46:56.161Z,71.41
2018-05-01T01:47:56.081Z,70.93
2018-05-01T01:48:56.005Z,70.36
2018-05-01T01:49:55.932Z,70.26
2018-05-01T01:50:55.851Z,70.17
2018-05-01T01:51:55.777Z,70.83
2018-05-01T01:52:55.697Z,70.74
2018-05-01T01:53:55.621Z,71.22
2018-05-01T01:54:55.551Z,71.12
2018-05-01T01:55:55.471Z,70.83
2018-05-01T01:56:55.399Z,70.74
2018-05-01T01:57:55.319Z,70.64
2018-05-01T01:58:55.248Z,71.02
2018-05-01T01:59:55.166Z,71.41
2018-05-01T02:00:55.091Z,71.22
2018-05-01T02:01:55.013Z,70.54
2018-05-01T02:02:54.937Z,71.50
2018-05-01T02:03:54.865Z,70.64
2018-05-01T02:04:54.785Z,70.36
2018-05-01T02:05:54.711Z,71.78
2018-05-01T02:06:54.636Z,70.93
2018-05-01T02:07:54.560Z,70.93
2018-05-01T02:08:54.481Z,70.26
2018-05-01T02:09:54.412Z,70.36
2018-05-01T02:10:54.326Z,70.83
2018-05-01T02:11:54.255Z,70.74
2018-05-01T02:12:54.181Z,70.54
2018-05-01T02:13:54.102Z,71.02
2018-05-01T02:14:54.025Z,71.22
2018-05-01T02:15:53.947Z,71.02
2018-05-01T02:16:53.872Z,70.45
2018-05-01T02:17:53.797Z,71.41
2018-05-01T02:18:53.719Z,70.45
2018-05-01T02:19:53.643Z,70.64
2018-05-01T02:20:53.566Z,71.59
2018-05-01T02:21:53.491Z,71.12
2018-05-01T02:22:53.414Z,70.83
2018-05-01T02:23:53.336Z,70.93
2018-05-01T02:24:53.263Z,71.12
2018-05-01T02:25:53.186Z,70.54
2018-05-01T02:26:53.111Z,71.31
2018-05-01T02:27:53.033Z,71.31
2018-05-01T02:28:52.955Z,70.54
2018-05-01T02:29:52.879Z,70.83
2018-05-01T02:30:52.805Z,71.22
2018-05-01T02:31:52.729Z,70.83
2018-05-01T02:32:52.651Z,71.31
2018-05-01T02:33:52.585Z,71.02
2018-05-01T02:34:52.500Z,70.74
2018-05-01T02:35:52.427Z,71.22
2018-05-01T02:36:52.349Z,71.41
2018-05-01T02:37:52.272Z,70.74
2018-05-01T02:38:52.201Z,70.83
2018-05-01T02:39:52.123Z,70.54
2018-05-01T02:40:52.050Z,71.59
2018-05-01T02:41:51.970Z,70.54
2018-05-01T02:42:51.896Z,71.02
2018-05-01T02:43:51.817Z,70.74
2018-05-01T02:44:51.739Z,71.22
2018-05-01T02:45:51.679Z,70.83
2018-05-01T02:46:51.591Z,70.45
2018-05-01T02:47:51.512Z,71.41
2018-05-01T02:48:51.434Z,70.74
2018-05-01T02:49:51.357Z,70.26
2018-05-01T02:50:51.282Z,70.64
2018-05-01T02:51:51.210Z,70.54
2018-05-01T02:52:51.129Z,70.45
2018-05-01T02:53:51.057Z,71.02
2018-05-01T02:54:50.979Z,71.31
2018-05-01T02:55:50.903Z,71.22
2018-05-01T02:56:50.830Z,71.41
2018-05-01T02:57:50.752Z,70.45
2018-05-01T02:58:50.673Z,71.31
2018-05-01T02:59:50.597Z,70.83
2018-05-01T03:00:50.521Z,70.64
2018-05-01T03:01:50.451Z,70.64
2018-05-01T03:02:50.369Z,70.83
2018-05-01T03:03:50.292Z,70.45
2018-05-01T03:04:50.214Z,70.45
2018-05-01T03:05:50.140Z,70.74
2018-05-01T03:06:50.064Z,71.59
2018-05-01T03:07:49.989Z,70.74
2018-05-01T03:08:49.914Z,70.93
2018-05-01T03:09:49.848Z,71.12
2018-05-01T03:10:49.757Z,71.41
2018-05-01T03:11:49.682Z,70.45
2018-05-01T03:12:49.605Z,71.41
2018-05-01T03:13:49.530Z,71.22
2018-05-01T03:14:49.453Z,70.93
2018-05-01T03:15:49.375Z,71.22
2018-05-01T03:16:49.301Z,71.41
2018-05-01T03:17:49.228Z,71.50
2018-05-01T03:18:49.148Z,71.41
2018-05-01T03:19:49.073Z,71.31
2018-05-01T03:20:48.995Z,71.59
2018-05-01T03:21:48.917Z,71.78
2018-05-01T03:22:48.847Z,71.59
2018-05-01T03:23:48.767Z,71.78
2018-05-01T03:24:48.689Z,72.45
2018-05-01T03:25:48.614Z,71.50
2018-05-01T03:26:48.540Z,71.69
2018-05-01T03:27:48.460Z,71.12
2018-05-01T03:28:48.387Z,71.78
2018-05-01T03:29:48.311Z,71.69
2018-05-01T03:30:48.233Z,72.26
2018-05-01T03:31:48.155Z,71.69
2018-05-01T03:32:48.083Z,71.12
2018-05-01T03:33:48.007Z,71.31
2018-05-01T03:34:47.926Z,71.59
2018-05-01T03:35:47.860Z,71.78
2018-05-01T03:36:47.773Z,72.45
2018-05-01T03:37:47.699Z,71.50
2018-05-01T03:38:47.621Z,71.50
2018-05-01T03:39:47.546Z,71.88
2018-05-01T03:40:47.469Z,71.69
2018-05-01T03:41:47.394Z,71.50
2018-05-01T03:42:47.316Z,71.31
2018-05-01T03:43:47.242Z,71.31
2018-05-01T03:44:47.163Z,71.88
2018-05-01T03:45:47.090Z,72.45
2018-05-01T03:46:47.013Z,72.55
2018-05-01T03:47:46.937Z,71.50
2018-05-01T03:48:46.859Z,72.55
2018-05-01T03:49:46.783Z,71.59
2018-05-01T03:50:46.706Z,71.69
2018-05-01T03:51:46.628Z,71.78
2018-05-01T03:52:46.554Z,72.45
2018-05-01T03:53:46.478Z,71.78
2018-05-01T03:54:46.404Z,71.59
2018-05-01T03:55:46.392Z,72.55
2018-05-01T03:56:46.249Z,71.88
2018-05-01T03:57:46.178Z,71.31
2018-05-01T03:58:46.097Z,72.35
2018-05-01T03:59:46.019Z,71.50
2018-05-01T04:00:45.945Z,71.59
2018-05-01T04:01:45.872Z,71.97
2018-05-01T04:02:45.789Z,71.69
2018-05-01T04:03:45.714Z,71.88
2018-05-01T04:04:45.638Z,72.26
2018-05-01T04:05:45.563Z,71.59
2018-05-01T04:06:45.487Z,71.50
2018-05-01T04:07:45.410Z,71.41
2018-05-01T04:08:45.334Z,72.74
2018-05-01T04:09:45.263Z,71.50
2018-05-01T04:10:45.187Z,72.26
2018-05-01T04:11:45.105Z,72.45
2018-05-01T04:12:45.026Z,72.35
2018-05-01T04:13:44.949Z,71.69
2018-05-01T04:14:44.877Z,71.50
2018-05-01T04:15:44.803Z,71.66
2018-05-01T04:16:44.722Z,72.83
2018-05-01T04:17:44.650Z,71.78
2018-05-01T04:18:44.574Z,71.78
2018-05-01T04:19:44.493Z,71.59
2018-05-01T04:20:44.421Z,71.78
2018-05-01T04:21:44.343Z,71.18
2018-05-01T04:22:44.265Z,71.18
2018-05-01T04:23:44.186Z,71.78
2018-05-01T04:24:44.111Z,71.59
2018-05-01T04:25:44.036Z,71.69
2018-05-01T04:26:43.959Z,71.31
2018-05-01T04:27:43.882Z,71.75
2018-05-01T04:28:43.810Z,71.75
2018-05-01T04:29:43.730Z,71.78
2018-05-01T04:30:43.658Z,71.50
2018-05-01T04:31:43.576Z,71.56
2018-05-01T04:32:43.501Z,71.69
2018-05-01T04:33:43.424Z,71.50
2018-05-01T04:34:43.349Z,71.69
2018-05-01T04:35:43.271Z,71.46
2018-05-01T04:36:43.202Z,71.50
2018-05-01T04:37:43.116Z,71.69
2018-05-01T04:38:43.043Z,71.69
2018-05-01T04:39:42.967Z,71.22
2018-05-01T04:40:42.889Z,71.59
2018-05-01T04:41:42.813Z,71.88
2018-05-01T04:42:42.736Z,70.74
2018-05-01T04:43:42.660Z,70.93
2018-05-01T04:44:42.582Z,70.42
2018-05-01T04:45:42.507Z,70.74
2018-05-01T04:46:42.431Z,70.36
2018-05-01T04:47:42.355Z,70.42
2018-05-01T04:48:42.278Z,70.45
2018-05-01T04:49:42.204Z,70.64
2018-05-01T04:50:42.126Z,70.36
2018-05-01T04:51:42.052Z,71.66
2018-05-01T04:52:41.974Z,70.45
2018-05-01T04:53:41.898Z,70.45
2018-05-01T04:54:41.817Z,70.54
2018-05-01T04:55:41.740Z,70.32
2018-05-01T04:56:41.666Z,70.17
2018-05-01T04:57:41.595Z,70.23
2018-05-01T04:58:41.515Z,70.45
2018-05-01T04:59:41.436Z,71.18
2018-05-01T05:00:41.359Z,71.22
2018-05-01T05:01:41.285Z,70.74
2018-05-01T05:02:41.213Z,70.17
2018-05-01T05:03:41.133Z,71.22
2018-05-01T05:04:41.058Z,70.54
2018-05-01T05:05:40.979Z,70.45
2018-05-01T05:06:40.903Z,70.36
2018-05-01T05:07:40.826Z,70.07
2018-05-01T05:08:40.749Z,70.07
2018-05-01T05:09:40.677Z,69.88
2018-05-01T05:10:40.602Z,69.88
2018-05-01T05:11:40.520Z,70.26
2018-05-01T05:12:40.443Z,70.17
2018-05-01T05:13:40.367Z,69.69
2018-05-01T05:14:40.290Z,69.18
2018-05-01T05:15:40.292Z,69.75
2018-05-01T05:16:40.139Z,69.12
2018-05-01T05:17:40.063Z,69.79
2018-05-01T05:18:39.990Z,69.60
2018-05-01T05:19:39.909Z,69.41
2018-05-01T05:20:39.833Z,69.79
2018-05-01T05:21:39.755Z,68.93
2018-05-01T05:22:39.680Z,68.55
2018-05-01T05:23:39.605Z,68.84
2018-05-01T05:24:39.525Z,69.02
2018-05-01T05:25:39.451Z,69.02
2018-05-01T05:26:39.374Z,69.60
2018-05-01T05:27:39.299Z,69.88
2018-05-01T05:28:39.224Z,69.12
2018-05-01T05:29:39.147Z,68.46
2018-05-01T05:30:39.070Z,68.55
2018-05-01T05:31:38.996Z,68.65
2018-05-01T05:32:38.918Z,68.36
2018-05-01T05:33:38.841Z,68.36
2018-05-01T05:34:38.765Z,68.74
2018-05-01T05:35:38.689Z,68.46
2018-05-01T05:36:38.612Z,68.84
2018-05-01T05:37:38.536Z,68.36
2018-05-01T05:38:38.460Z,69.69
2018-05-01T05:39:38.389Z,68.74
2018-05-01T05:40:38.308Z,68.55
2018-05-01T05:41:38.230Z,68.07
2018-05-01T05:42:38.153Z,67.69
2018-05-01T05:43:38.077Z,67.41
2018-05-01T05:44:38.001Z,67.98
2018-05-01T05:45:37.969Z,68.07
2018-05-01T05:46:37.850Z,68.65
2018-05-01T05:47:37.772Z,67.79
2018-05-01T05:48:37.697Z,68.27
2018-05-01T05:49:37.621Z,67.79
2018-05-01T05:50:37.549Z,68.84
2018-05-01T05:51:37.473Z,69.02
2018-05-01T05:52:37.396Z,67.79
2018-05-01T05:53:37.317Z,67.60
2018-05-01T05:54:37.244Z,67.22
2018-05-01T05:55:37.167Z,67.79
2018-05-01T05:56:37.089Z,68.17
2018-05-01T05:57:37.017Z,68.17
2018-05-01T05:58:36.935Z,68.17
2018-05-01T05:59:36.860Z,67.88
2018-05-01T06:00:36.784Z,68.17
2018-05-01T06:01:36.708Z,67.69
2018-05-01T06:02:36.630Z,67.60
2018-05-01T06:03:36.557Z,67.41
2018-05-01T06:04:36.480Z,67.41
2018-05-01T06:05:36.414Z,67.50
2018-05-01T06:06:36.327Z,67.50
2018-05-01T06:07:36.251Z,67.69
2018-05-01T06:08:36.175Z,67.41
2018-05-01T06:09:36.106Z,67.60
2018-05-01T06:10:36.028Z,67.98
2018-05-01T06:11:35.949Z,66.84
2018-05-01T06:12:35.872Z,66.36
2018-05-01T06:13:35.855Z,66.65
2018-05-01T06:14:35.719Z,66.65
2018-05-01T06:15:35.640Z,66.84
2018-05-01T06:16:35.570Z,67.22
2018-05-01T06:17:35.487Z,66.36
2018-05-01T06:18:35.415Z,66.36
2018-05-01T06:19:35.337Z,66.36
2018-05-01T06:20:35.268Z,67.44
2018-05-01T06:21:35.184Z,66.46
2018-05-01T06:22:35.124Z,65.41
2018-05-01T06:23:35.036Z,65.92
2018-05-01T06:24:34.967Z,66.55
2018-05-01T06:25:34.887Z,66.02
2018-05-01T06:26:34.808Z,65.35
2018-05-01T06:27:34.730Z,65.73
2018-05-01T06:28:34.654Z,65.41
2018-05-01T06:29:34.579Z,65.25
2018-05-01T06:30:34.502Z,65.16
2018-05-01T06:31:34.426Z,65.73
2018-05-01T06:32:34.352Z,65.64
2018-05-01T06:33:34.276Z,65.06
2018-05-01T06:34:34.198Z,65.83
2018-05-01T06:35:34.126Z,65.35
2018-05-01T06:36:34.051Z,65.06
2018-05-01T06:37:33.973Z,65.64
2018-05-01T06:38:33.899Z,65.92
2018-05-01T06:39:33.820Z,65.25
2018-05-01T06:40:33.745Z,65.25
2018-05-01T06:41:33.674Z,65.06
2018-05-01T06:42:33.596Z,64.97
2018-05-01T06:43:33.518Z,64.31
2018-05-01T06:44:33.441Z,65.06
2018-05-01T06:45:33.367Z,64.69
2018-05-01T06:46:33.296Z,64.11
2018-05-01T06:47:33.221Z,64.21
2018-05-01T06:48:33.140Z,64.02
2018-05-01T06:49:33.065Z,64.11
2018-05-01T06:50:32.989Z,64.11
2018-05-01T06:51:32.922Z,64.11
2018-05-01T06:52:32.837Z,64.21
2018-05-01T06:53:32.761Z,64.31
2018-05-01T06:54:32.686Z,63.73
2018-05-01T06:55:32.618Z,63.26
2018-05-01T06:56:32.537Z,63.35
2018-05-01T06:57:32.461Z,64.02
2018-05-01T06:58:32.387Z,63.92
2018-05-01T06:59:32.309Z,64.11
2018-05-01T07:00:32.234Z,63.83
2018-05-01T07:01:32.158Z,64.02
2018-05-01T07:02:32.082Z,63.54
2018-05-01T07:03:32.009Z,63.83
2018-05-01T07:04:32.055Z,63.35
2018-05-01T07:05:31.854Z,62.69
2018-05-01T07:06:31.799Z,62.97
2018-05-01T07:07:31.711Z,62.69
2018-05-01T07:08:31.626Z,61.64
2018-05-01T07:09:31.559Z,61.45
2018-05-01T07:10:31.478Z,61.16
2018-05-01T07:11:31.403Z,61.16
2018-05-01T07:12:31.326Z,61.64
2018-05-01T07:13:31.252Z,61.26
2018-05-01T07:14:31.175Z,61.26
2018-05-01T07:15:31.101Z,61.35
2018-05-01T07:16:31.024Z,61.86
2018-05-01T07:17:30.951Z,61.58
2018-05-01T07:18:30.881Z,60.91
2018-05-01T07:19:30.801Z,60.41
2018-05-01T07:20:30.727Z,60.78
2018-05-01T07:21:30.650Z,60.60
2018-05-01T07:22:30.575Z,61.45
2018-05-01T07:23:30.499Z,61.16
2018-05-01T07:24:30.423Z,61.45
2018-05-01T07:25:30.349Z,60.41
2018-05-01T07:26:30.273Z,60.82
2018-05-01T07:27:30.231Z,61.38
2018-05-01T07:28:30.126Z,61.29
2018-05-01T07:29:30.055Z,60.72
2018-05-01T07:30:29.974Z,59.77
2018-05-01T07:31:29.898Z,59.67
2018-05-01T07:32:29.825Z,59.39
2018-05-01T07:33:29.747Z,59.96
2018-05-01T07:34:29.674Z,60.05
2018-05-01T07:35:29.617Z,60.63
2018-05-01T07:36:29.525Z,59.29
2018-05-01T07:37:29.450Z,59.01
2018-05-01T07:38:29.373Z,59.01
2018-05-01T07:39:29.297Z,59.39
2018-05-01T07:40:29.222Z,59.10
2018-05-01T07:41:29.152Z,58.72
2018-05-01T07:42:29.076Z,58.44
2018-05-01T07:43:28.998Z,59.20
2018-05-01T07:44:28.921Z,59.29
2018-05-01T07:45:28.853Z,58.44
2018-05-01T07:46:28.780Z,59.29
2018-05-01T07:47:28.697Z,60.15
2018-05-01T07:48:28.631Z,59.20
2018-05-01T07:49:28.549Z,59.20
2018-05-01T07:50:28.479Z,59.48
2018-05-01T07:51:28.398Z,59.86
2018-05-01T07:52:28.326Z,59.29
2018-05-01T07:53:28.253Z,59.10
2018-05-01T07:54:28.175Z,59.13
2018-05-01T07:55:28.108Z,59.42
2018-05-01T07:56:28.025Z,59.32
2018-05-01T07:57:27.951Z,60.18
2018-05-01T07:58:27.880Z,60.37
2018-05-01T07:59:27.805Z,60.08
2018-05-01T08:00:27.724Z,59.70
2018-05-01T08:01:27.652Z,59.70
2018-05-01T08:02:27.578Z,60.37
2018-05-01T08:03:27.502Z,60.08
2018-05-01T08:04:27.429Z,59.51
2018-05-01T08:05:27.355Z,59.42
2018-05-01T08:06:27.282Z,60.27
2018-05-01T08:07:27.205Z,60.18
2018-05-01T08:08:27.127Z,60.08
2018-05-01T08:09:27.055Z,59.99
2018-05-01T08:10:26.983Z,59.42
2018-05-01T08:11:26.907Z,59.42
2018-05-01T08:12:26.838Z,59.23
2018-05-01T08:13:26.757Z,59.13
2018-05-01T08:14:26.684Z,60.08
2018-05-01T08:15:26.615Z,59.42
2018-05-01T08:16:26.534Z,59.70
2018-05-01T08:17:26.463Z,59.51
2018-05-01T08:18:26.387Z,58.84
2018-05-01T08:19:26.313Z,59.42
2018-05-01T08:20:26.237Z,58.94
2018-05-01T08:21:26.166Z,59.13
2018-05-01T08:22:26.087Z,58.08
2018-05-01T08:23:26.016Z,58.56
2018-05-01T08:24:26.013Z,59.03
2018-05-01T08:25:25.868Z,58.87
2018-05-01T08:26:25.791Z,58.56
2018-05-01T08:27:25.718Z,57.45
2018-05-01T08:28:25.647Z,58.02
2018-05-01T08:29:25.571Z,58.50
2018-05-01T08:30:25.502Z,58.02
2018-05-01T08:31:25.421Z,57.26
2018-05-01T08:32:25.345Z,57.92
2018-05-01T08:33:25.279Z,57.16
2018-05-01T08:34:25.202Z,57.35
2018-05-01T08:35:25.127Z,57.92
2018-05-01T08:36:25.054Z,57.73
2018-05-01T08:37:24.982Z,56.30
2018-05-01T08:38:24.904Z,57.07
2018-05-01T08:39:24.829Z,56.78
2018-05-01T08:40:24.756Z,56.02
2018-05-01T08:41:24.682Z,56.11
2018-05-01T08:42:24.610Z,56.52
2018-05-01T08:43:24.539Z,55.28
2018-05-01T08:44:24.460Z,54.52
2018-05-01T08:45:24.441Z,55.19
2018-05-01T08:46:24.316Z,54.14
2018-05-01T08:47:24.243Z,53.09
2018-05-01T08:48:24.166Z,52.52
2018-05-01T08:49:24.097Z,53.02
2018-05-01T08:50:24.026Z,53.41
2018-05-01T08:51:23.956Z,53.12
2018-05-01T08:52:23.885Z,52.45
2018-05-01T08:53:23.809Z,53.00
2018-05-01T08:54:23.730Z,52.33
2018-05-01T08:55:23.656Z,51.95
2018-05-01T08:56:23.587Z,53.28
2018-05-01T08:57:23.629Z,52.61
2018-05-01T08:58:23.438Z,52.71
2018-05-01T08:59:23.366Z,52.92
2018-05-01T09:00:23.292Z,52.83
2018-05-01T09:01:23.220Z,52.73
2018-05-01T09:02:23.147Z,53.12
2018-05-01T09:03:23.078Z,52.55
2018-05-01T09:04:23.006Z,51.97
2018-05-01T09:05:22.929Z,52.45
2018-05-01T09:06:22.857Z,52.26
2018-05-01T09:07:22.783Z,52.00
2018-05-01T09:08:22.712Z,51.40
2018-05-01T09:09:22.639Z,51.40
2018-05-01T09:10:22.566Z,50.83
2018-05-01T09:11:22.492Z,51.40
2018-05-01T09:12:22.421Z,50.54
2018-05-01T09:13:22.349Z,50.28
2018-05-01T09:14:22.280Z,49.54
2018-05-01T09:15:22.204Z,48.78
2018-05-01T09:16:22.133Z,46.82
2018-05-01T09:17:22.061Z,46.15
2018-05-01T09:18:22.204Z,44.84
2018-05-01T09:19:21.926Z,44.38
2018-05-01T09:20:21.850Z,43.43
2018-05-01T09:21:21.781Z,43.04
2018-05-01T09:22:21.709Z,43.43
2018-05-01T09:23:21.641Z,45.29
2018-05-01T09:24:21.570Z,45.20
2018-05-01T09:25:21.501Z,44.55
2018-05-01T09:26:21.433Z,43.88
2018-05-01T09:27:21.365Z,43.59
2018-05-01T09:28:21.295Z,42.56
2018-05-01T09:29:21.226Z,42.37
2018-05-01T09:30:21.158Z,43.76
2018-05-01T09:31:21.092Z,44.53
2018-05-01T09:32:21.025Z,44.36
2018-05-01T09:33:20.951Z,45.41
2018-05-01T09:34:20.888Z,43.90
2018-05-01T09:35:20.847Z,42.58
2018-05-01T09:36:20.746Z,41.34
2018-05-01T09:37:20.675Z,41.51
2018-05-01T09:38:20.611Z,41.34
2018-05-01T09:39:20.548Z,42.76
2018-05-01T09:40:20.477Z,42.11
2018-05-01T09:41:20.412Z,40.95
2018-05-01T09:42:20.342Z,40.52
2018-05-01T09:43:20.274Z,39.81
2018-05-01T09:44:20.208Z,40.92
2018-05-01T09:45:20.148Z,42.08
2018-05-01T09:46:20.079Z,41.46
2018-05-01T09:47:20.007Z,40.02
2018-05-01T09:48:19.939Z,40.95
2018-05-01T09:49:19.870Z,41.32
2018-05-01T09:50:19.810Z,41.82
2018-05-01T09:51:19.739Z,43.12
2018-05-01T09:52:19.679Z,43.59
2018-05-01T09:53:19.665Z,40.95
2018-05-01T09:54:19.540Z,40.67
2018-05-01T09:55:19.471Z,41.55
2018-05-01T09:56:19.404Z,40.12
2018-05-01T09:57:19.340Z,38.96
2018-05-01T09:58:19.272Z,38.89
2018-05-01T09:59:19.205Z,39.81
2018-05-01T10:00:19.138Z,40.21
2018-05-01T10:01:19.073Z,40.41
2018-05-01T10:02:19.010Z,40.09
2018-05-01T10:03:18.940Z,40.41
2018-05-01T10:04:18.875Z,40.38
2018-05-01T10:05:18.809Z,41.13
2018-05-01T10:06:18.742Z,43.21
2018-05-01T10:07:18.676Z,43.69
2018-05-01T10:08:18.610Z,43.23
2018-05-01T10:09:18.545Z,42.13
2018-05-01T10:10:18.478Z,40.94
2018-05-01T10:11:18.412Z,42.16
2018-05-01T10:12:18.374Z,43.55
2018-05-01T10:13:18.283Z,45.58
2018-05-01T10:14:18.236Z,46.15
2018-05-01T10:15:18.147Z,45.48
2018-05-01T10:16:18.080Z,45.20
2018-05-01T10:17:18.016Z,45.01
2018-05-01T10:18:17.944Z,45.37
2018-05-01T10:19:17.882Z,46.42
2018-05-01T10:20:17.811Z,46.25
2018-05-01T10:21:17.746Z,46.80
2018-05-01T10:22:17.677Z,47.75
2018-05-01T10:23:17.610Z,48.11
2018-05-01T10:24:17.538Z,48.30
2018-05-01T10:25:17.470Z,48.78
2018-05-01T10:26:17.402Z,48.04
2018-05-01T10:27:17.334Z,47.66
2018-05-01T10:28:17.261Z,47.66
2018-05-01T10:29:17.190Z,48.21
2018-05-01T10:30:17.122Z,48.02
2018-05-01T10:31:17.051Z,48.02
2018-05-01T10:32:16.985Z,49.35
2018-05-01T10:33:16.910Z,50.02
2018-05-01T10:34:16.843Z,50.40
2018-05-01T10:35:16.771Z,50.31
2018-05-01T10:36:16.695Z,50.49
2018-05-01T10:37:16.627Z,49.26
2018-05-01T10:38:16.559Z,49.33
2018-05-01T10:39:16.487Z,49.44
2018-05-01T10:40:16.415Z,50.02
2018-05-01T10:41:16.347Z,49.64
2018-05-01T10:42:16.275Z,48.39
2018-05-01T10:43:16.201Z,48.39
2018-05-01T10:44:16.138Z,49.35
2018-05-01T10:45:16.058Z,49.26
2018-05-01T10:46:15.988Z,49.35
2018-05-01T10:47:15.915Z,48.61
2018-05-01T10:48:15.843Z,48.33
2018-05-01T10:49:15.772Z,48.16
2018-05-01T10:50:15.700Z,47.11
2018-05-01T10:51:15.675Z,46.63
2018-05-01T10:52:15.563Z,46.72
2018-05-01T10:53:15.485Z,46.25
2018-05-01T10:54:15.436Z,45.98
2018-05-01T10:55:15.342Z,45.60
2018-05-01T10:56:15.273Z,45.12
2018-05-01T10:57:15.217Z,43.98
2018-05-01T10:58:15.127Z,43.48
2018-05-01T10:59:15.067Z,43.66
2018-05-01T11:00:14.988Z,43.84
2018-05-01T11:01:14.917Z,44.79
2018-05-01T11:02:14.846Z,45.65
2018-05-01T11:03:14.773Z,46.32
2018-05-01T11:04:14.701Z,46.03
2018-05-01T11:05:14.630Z,46.48
2018-05-01T11:06:14.559Z,46.70
2018-05-01T11:07:14.488Z,46.51
2018-05-01T11:08:14.418Z,46.22
2018-05-01T11:09:14.347Z,45.56
2018-05-01T11:10:14.275Z,46.42
2018-05-01T11:11:14.204Z,46.13
2018-05-01T11:12:14.141Z,45.08
2018-05-01T11:13:14.062Z,45.27
2018-05-01T11:14:13.991Z,44.60
2018-05-01T11:15:13.915Z,44.98
2018-05-01T11:16:13.844Z,46.34
2018-05-01T11:17:13.780Z,44.62
2018-05-01T11:18:13.701Z,44.53
2018-05-01T11:19:13.633Z,44.62
2018-05-01T11:20:13.561Z,44.43
2018-05-01T11:21:13.488Z,44.15
2018-05-01T11:22:13.416Z,43.66
2018-05-01T11:23:13.350Z,43.29
2018-05-01T11:24:13.275Z,43.30
2018-05-01T11:25:13.206Z,43.21
2018-05-01T11:26:13.206Z,43.30
2018-05-01T11:27:13.075Z,42.73
2018-05-01T11:28:12.992Z,42.44
2018-05-01T11:29:12.919Z,43.86
2018-05-01T11:30:12.848Z,43.88
2018-05-01T11:31:12.779Z,41.61
2018-05-01T11:32:12.707Z,40.25
2018-05-01T11:33:12.635Z,41.61
2018-05-01T11:34:12.565Z,42.01
2018-05-01T11:35:12.493Z,41.41
2018-05-01T11:36:12.423Z,42.07
2018-05-01T11:37:12.353Z,42.64
2018-05-01T11:38:12.282Z,42.83
2018-05-01T11:39:12.212Z,44.19
2018-05-01T11:40:12.143Z,43.59
2018-05-01T11:41:12.072Z,43.79
2018-05-01T11:42:12.005Z,43.52
2018-05-01T11:43:11.933Z,43.12
2018-05-01T11:44:11.862Z,43.21
2018-05-01T11:45:11.792Z,43.88
2018-05-01T11:46:11.721Z,44.26
2018-05-01T11:47:11.653Z,43.79
2018-05-01T11:48:11.590Z,44.72
2018-05-01T11:49:11.517Z,45.31
2018-05-01T11:50:11.443Z,45.89
2018-05-01T11:51:11.369Z,46.17
2018-05-01T11:52:11.309Z,44.15
2018-05-01T11:53:11.239Z,43.76
2018-05-01T11:54:11.161Z,45.10
2018-05-01T11:55:11.089Z,45.39
2018-05-01T11:56:11.020Z,44.15
2018-05-01T11:57:10.953Z,44.72
2018-05-01T11:58:10.903Z,45.58
2018-05-01T11:59:10.805Z,45.48
2018-05-01T12:00:10.736Z,46.25
2018-05-01T12:01:10.666Z,46.06
2018-05-01T12:02:10.594Z,45.20
2018-05-01T12:03:10.519Z,46.06
2018-05-01T12:04:10.450Z,46.72
2018-05-01T12:05:10.380Z,45.96
2018-05-01T12:06:10.311Z,46.15
2018-05-01T12:07:10.237Z,46.51
2018-05-01T12:08:10.164Z,45.84
2018-05-01T12:09:10.093Z,46.32
2018-05-01T12:10:10.023Z,46.80
2018-05-01T12:11:09.950Z,47.11
2018-05-01T12:12:09.879Z,46.13
2018-05-01T12:13:09.808Z,47.20
2018-05-01T12:14:09.739Z,46.44
2018-05-01T12:15:09.664Z,46.13
2018-05-01T12:16:09.664Z,45.75
2018-05-01T12:17:09.521Z,45.56
2018-05-01T12:18:09.450Z,45.94
2018-05-01T12:19:09.377Z,46.15
2018-05-01T12:20:09.306Z,45.48
2018-05-01T12:21:09.233Z,45.48
2018-05-01T12:22:09.171Z,45.48
2018-05-01T12:23:09.113Z,45.58
2018-05-01T12:24:09.020Z,45.58
2018-05-01T12:25:08.951Z,45.20
2018-05-01T12:26:08.878Z,45.10
2018-05-01T12:27:08.812Z,46.06
2018-05-01T12:28:08.733Z,46.25
2018-05-01T12:29:08.668Z,45.96
2018-05-01T12:30:08.637Z,46.34
2018-05-01T12:31:08.520Z,46.53
2018-05-01T12:32:08.450Z,46.25
2018-05-01T12:33:08.379Z,47.01
2018-05-01T12:34:08.305Z,46.92
2018-05-01T12:35:08.230Z,46.25
2018-05-01T12:36:08.160Z,46.63
2018-05-01T12:37:08.258Z,47.52
2018-05-01T12:38:08.020Z,46.75
2018-05-01T12:39:07.947Z,46.46
2018-05-01T12:40:07.876Z,45.79
2018-05-01T12:41:07.803Z,45.89
2018-05-01T12:42:07.748Z,45.12
2018-05-01T12:43:07.659Z,45.29
2018-05-01T12:44:07.588Z,45.29
2018-05-01T12:45:07.520Z,45.67
2018-05-01T12:46:07.446Z,46.06
2018-05-01T12:47:07.381Z,45.51
2018-05-01T12:48:07.342Z,45.60
2018-05-01T12:49:07.233Z,45.60
2018-05-01T12:50:07.169Z,44.36
2018-05-01T12:51:07.088Z,43.59